sensor_id;sensor_type;location;lat;lon;timestamp;pressure;altitude;pressure_sealevel;temperature
50206;BMP280;36098;48.390;10.856;2023-10-31T00:02:23;94566.88;;;22.76
50206;BMP280;36098;48.390;10.856;2023-10-31T00:04:48;94577.41;;;22.76
50206;BMP280;36098;48.390;10.856;2023-10-31T00:07:13;94573.22;;;22.75
50206;BMP280;36098;48.390;10.856;2023-10-31T00:09:39;94575.09;;;22.74
50206;BMP280;36098;48.390;10.856;2023-10-31T00:12:05;94577.72;;;22.74
50206;BMP280;36098;48.390;10.856;2023-10-31T00:14:30;94581.44;;;22.73
50206;BMP280;36098;48.390;10.856;2023-10-31T00:16:55;94587.78;;;22.72
50206;BMP280;36098;48.390;10.856;2023-10-31T00:19:21;94582.06;;;22.70
50206;BMP280;36098;48.390;10.856;2023-10-31T00:21:46;94582.81;;;22.71
50206;BMP280;36098;48.390;10.856;2023-10-31T00:24:11;94588.06;;;22.71
50206;BMP280;36098;48.390;10.856;2023-10-31T00:26:37;94587.59;;;22.69
50206;BMP280;36098;48.390;10.856;2023-10-31T00:29:02;94591.78;;;22.70
50206;BMP280;36098;48.390;10.856;2023-10-31T00:31:27;94595.50;;;22.69
50206;BMP280;36098;48.390;10.856;2023-10-31T00:33:53;94595.50;;;22.69
50206;BMP280;36098;48.390;10.856;2023-10-31T00:36:18;94593.94;;;22.68
50206;BMP280;36098;48.390;10.856;2023-10-31T00:38:43;94599.50;;;22.66
50206;BMP280;36098;48.390;10.856;2023-10-31T00:41:09;94591.59;;;22.66
50206;BMP280;36098;48.390;10.856;2023-10-31T00:43:34;94589.28;;;22.65
50206;BMP280;36098;48.390;10.856;2023-10-31T00:46:02;94592.69;;;22.65
50206;BMP280;36098;48.390;10.856;2023-10-31T00:48:27;94599.81;;;22.65
50206;BMP280;36098;48.390;10.856;2023-10-31T00:50:52;94605.06;;;22.65
50206;BMP280;36098;48.390;10.856;2023-10-31T00:53:18;94612.50;;;22.63
50206;BMP280;36098;48.390;10.856;2023-10-31T00:55:43;94612.50;;;22.63
50206;BMP280;36098;48.390;10.856;2023-10-31T00:58:09;94601.97;;;22.63
50206;BMP280;36098;48.390;10.856;2023-10-31T01:00:34;94601.16;;;22.62
50206;BMP280;36098;48.390;10.856;2023-10-31T01:03:02;94601.50;;;22.61
50206;BMP280;36098;48.390;10.856;2023-10-31T01:05:28;94602.56;;;22.60
50206;BMP280;36098;48.390;10.856;2023-10-31T01:07:54;94615.72;;;22.60
50206;BMP280;36098;48.390;10.856;2023-10-31T01:10:19;94601.78;;;22.59
50206;BMP280;36098;48.390;10.856;2023-10-31T01:12:44;94594.97;;;22.58
50206;BMP280;36098;48.390;10.856;2023-10-31T01:15:09;94592.63;;;22.57
50206;BMP280;36098;48.390;10.856;2023-10-31T01:17:35;94603.13;;;22.57
50206;BMP280;36098;48.390;10.856;2023-10-31T01:20:00;94603.13;;;22.57
50206;BMP280;36098;48.390;10.856;2023-10-31T01:22:25;94603.13;;;22.57
50206;BMP280;36098;48.390;10.856;2023-10-31T01:24:51;94601.59;;;22.56
50206;BMP280;36098;48.390;10.856;2023-10-31T01:27:16;94610.56;;;22.55
50206;BMP280;36098;48.390;10.856;2023-10-31T01:29:42;94602.97;;;22.53
50206;BMP280;36098;48.390;10.856;2023-10-31T01:32:07;94611.94;;;22.52
50206;BMP280;36098;48.390;10.856;2023-10-31T01:34:32;94617.22;;;22.52
50206;BMP280;36098;48.390;10.856;2023-10-31T01:36:58;94626.19;;;22.51
50206;BMP280;36098;48.390;10.856;2023-10-31T01:39:23;94622.75;;;22.51
50206;BMP280;36098;48.390;10.856;2023-10-31T01:41:48;94625.38;;;22.51
50206;BMP280;36098;48.390;10.856;2023-10-31T01:44:14;94629.56;;;22.52
50206;BMP280;36098;48.390;10.856;2023-10-31T01:46:39;94624.63;;;22.50
50206;BMP280;36098;48.390;10.856;2023-10-31T01:49:05;94622.00;;;22.50
50206;BMP280;36098;48.390;10.856;2023-10-31T01:51:30;94622.28;;;22.49
50206;BMP280;36098;48.390;10.856;2023-10-31T01:53:55;94627.53;;;22.49
50206;BMP280;36098;48.390;10.856;2023-10-31T01:56:22;94631.25;;;22.48
50206;BMP280;36098;48.390;10.856;2023-10-31T01:58:49;94634.63;;;22.48
50206;BMP280;36098;48.390;10.856;2023-10-31T02:01:15;94642.84;;;22.47
50206;BMP280;36098;48.390;10.856;2023-10-31T02:03:40;94634.97;;;22.47
50206;BMP280;36098;48.390;10.856;2023-10-31T02:06:05;94638.66;;;22.46
50206;BMP280;36098;48.390;10.856;2023-10-31T02:08:31;94632.63;;;22.45
50206;BMP280;36098;48.390;10.856;2023-10-31T02:10:56;94642.84;;;22.47
50206;BMP280;36098;48.390;10.856;2023-10-31T02:13:22;94639.75;;;22.45
50206;BMP280;36098;48.390;10.856;2023-10-31T02:15:47;94635.56;;;22.44
50206;BMP280;36098;48.390;10.856;2023-10-31T02:18:13;94646.06;;;22.44
50206;BMP280;36098;48.390;10.856;2023-10-31T02:20:39;94650.53;;;22.43
50206;BMP280;36098;48.390;10.856;2023-10-31T02:23:05;94642.66;;;22.43
50206;BMP280;36098;48.390;10.856;2023-10-31T02:25:30;94645.28;;;22.43
50206;BMP280;36098;48.390;10.856;2023-10-31T02:27:56;94648.22;;;22.42
50206;BMP280;36098;48.390;10.856;2023-10-31T02:30:21;94649.31;;;22.41
50206;BMP280;36098;48.390;10.856;2023-10-31T02:32:47;94642.19;;;22.41
50206;BMP280;36098;48.390;10.856;2023-10-31T02:35:12;94644.81;;;22.41
50206;BMP280;36098;48.390;10.856;2023-10-31T02:37:39;94651.16;;;22.40
50206;BMP280;36098;48.390;10.856;2023-10-31T02:40:05;94659.81;;;22.41
50206;BMP280;36098;48.390;10.856;2023-10-31T02:42:31;94655.63;;;22.40
50206;BMP280;36098;48.390;10.856;2023-10-31T02:44:56;94657.75;;;22.38
50206;BMP280;36098;48.390;10.856;2023-10-31T02:47:22;94660.41;;;22.38
50206;BMP280;36098;48.390;10.856;2023-10-31T02:49:47;94663.03;;;22.38
50206;BMP280;36098;48.390;10.856;2023-10-31T02:52:12;94665.94;;;22.36
50206;BMP280;36098;48.390;10.856;2023-10-31T02:54:37;94663.59;;;22.35
50206;BMP280;36098;48.390;10.856;2023-10-31T02:57:03;94671.19;;;22.36
50206;BMP280;36098;48.390;10.856;2023-10-31T02:59:29;94668.84;;;22.35
50206;BMP280;36098;48.390;10.856;2023-10-31T03:01:56;94680.16;;;22.35
50206;BMP280;36098;48.390;10.856;2023-10-31T03:04:21;94678.28;;;22.36
50206;BMP280;36098;48.390;10.856;2023-10-31T03:06:47;94690.19;;;22.33
50206;BMP280;36098;48.390;10.856;2023-10-31T03:09:12;94689.41;;;22.33
50206;BMP280;36098;48.390;10.856;2023-10-31T03:11:37;94695.47;;;22.33
50206;BMP280;36098;48.390;10.856;2023-10-31T03:14:03;94698.09;;;22.33
50206;BMP280;36098;48.390;10.856;2023-10-31T03:16:28;94707.81;;;22.33
50206;BMP280;36098;48.390;10.856;2023-10-31T03:18:53;94696.53;;;22.32
50206;BMP280;36098;48.390;10.856;2023-10-31T03:21:19;94709.97;;;22.31
50206;BMP280;36098;48.390;10.856;2023-10-31T03:23:48;94707.34;;;22.31
50206;BMP280;36098;48.390;10.856;2023-10-31T03:26:15;94703.94;;;22.30
50206;BMP280;36098;48.390;10.856;2023-10-31T03:28:40;94703.16;;;22.30
50206;BMP280;36098;48.390;10.856;2023-10-31T03:31:05;94708.41;;;22.30
50206;BMP280;36098;48.390;10.856;2023-10-31T03:33:31;94712.13;;;22.29
50206;BMP280;36098;48.390;10.856;2023-10-31T03:35:57;94721.06;;;22.28
50206;BMP280;36098;48.390;10.856;2023-10-31T03:38:22;94726.34;;;22.28
50206;BMP280;36098;48.390;10.856;2023-10-31T03:40:47;94736.84;;;22.28
50206;BMP280;36098;48.390;10.856;2023-10-31T03:43:12;94734.50;;;22.26
50206;BMP280;36098;48.390;10.856;2023-10-31T03:45:38;94735.28;;;22.27
50206;BMP280;36098;48.390;10.856;2023-10-31T03:48:03;94736.38;;;22.26
50206;BMP280;36098;48.390;10.856;2023-10-31T03:50:29;94729.56;;;22.25
50206;BMP280;36098;48.390;10.856;2023-10-31T03:52:54;94732.19;;;22.25
50206;BMP280;36098;48.390;10.856;2023-10-31T03:55:19;94735.91;;;22.24
50206;BMP280;36098;48.390;10.856;2023-10-31T03:57:45;94724.59;;;22.23
50206;BMP280;36098;48.390;10.856;2023-10-31T04:00:10;94727.53;;;22.22
50206;BMP280;36098;48.390;10.856;2023-10-31T04:02:36;94719.91;;;22.20
50206;BMP280;36098;48.390;10.856;2023-10-31T04:05:02;94731.22;;;22.21
50206;BMP280;36098;48.390;10.856;2023-10-31T04:07:27;94736.50;;;22.21
50206;BMP280;36098;48.390;10.856;2023-10-31T04:09:52;94737.56;;;22.20
50206;BMP280;36098;48.390;10.856;2023-10-31T04:12:18;94742.03;;;22.19
50206;BMP280;36098;48.390;10.856;2023-10-31T04:14:43;94740.19;;;22.20
50206;BMP280;36098;48.390;10.856;2023-10-31T04:17:08;94738.59;;;22.19
50206;BMP280;36098;48.390;10.856;2023-10-31T04:19:36;94733.34;;;22.19
50206;BMP280;36098;48.390;10.856;2023-10-31T04:22:01;94738.59;;;22.19
50206;BMP280;36098;48.390;10.856;2023-10-31T04:24:26;94731.03;;;22.17
50206;BMP280;36098;48.390;10.856;2023-10-31T04:26:52;94736.28;;;22.17
50206;BMP280;36098;48.390;10.856;2023-10-31T04:29:17;94732.88;;;22.17
50206;BMP280;36098;48.390;10.856;2023-10-31T04:31:42;94741.81;;;22.16
50206;BMP280;36098;48.390;10.856;2023-10-31T04:34:08;94741.06;;;22.15
50206;BMP280;36098;48.390;10.856;2023-10-31T04:36:33;94737.63;;;22.15
50206;BMP280;36098;48.390;10.856;2023-10-31T04:38:58;94749.22;;;22.14
50206;BMP280;36098;48.390;10.856;2023-10-31T04:41:23;94743.22;;;22.13
50206;BMP280;36098;48.390;10.856;2023-10-31T04:43:49;94751.84;;;22.14
50206;BMP280;36098;48.390;10.856;2023-10-31T04:46:14;94748.47;;;22.13
50206;BMP280;36098;48.390;10.856;2023-10-31T04:48:39;94753.72;;;22.13
50206;BMP280;36098;48.390;10.856;2023-10-31T04:51:05;94755.56;;;22.13
50206;BMP280;36098;48.390;10.856;2023-10-31T04:53:30;94753.25;;;22.11
50206;BMP280;36098;48.390;10.856;2023-10-31T04:55:57;94756.16;;;22.10
50206;BMP280;36098;48.390;10.856;2023-10-31T04:58:23;94762.19;;;22.10
50206;BMP280;36098;48.390;10.856;2023-10-31T05:00:48;94757.69;;;22.11
50206;BMP280;36098;48.390;10.856;2023-10-31T05:03:13;94753.81;;;22.08
50206;BMP280;36098;48.390;10.856;2023-10-31T05:05:38;94756.16;;;22.10
50206;BMP280;36098;48.390;10.856;2023-10-31T05:08:04;94759.06;;;22.08
50206;BMP280;36098;48.390;10.856;2023-10-31T05:10:29;94755.66;;;22.08
50206;BMP280;36098;48.390;10.856;2023-10-31T05:12:54;94756.75;;;22.07
50206;BMP280;36098;48.390;10.856;2023-10-31T05:15:19;94757.50;;;22.07
50206;BMP280;36098;48.390;10.856;2023-10-31T05:17:45;94755.94;;;22.06
50206;BMP280;36098;48.390;10.856;2023-10-31T05:20:10;94766.47;;;22.06
50206;BMP280;36098;48.390;10.856;2023-10-31T05:22:36;94763.06;;;22.06
50206;BMP280;36098;48.390;10.856;2023-10-31T05:25:02;94752.56;;;22.06
50206;BMP280;36098;48.390;10.856;2023-10-31T05:27:28;94763.06;;;22.06
50206;BMP280;36098;48.390;10.856;2023-10-31T05:29:53;94775.41;;;22.05
50206;BMP280;36098;48.390;10.856;2023-10-31T05:32:19;94767.84;;;22.04
50206;BMP280;36098;48.390;10.856;2023-10-31T05:34:44;94778.34;;;22.04
50206;BMP280;36098;48.390;10.856;2023-10-31T05:37:09;94776.81;;;22.03
50206;BMP280;36098;48.390;10.856;2023-10-31T05:39:34;94782.06;;;22.03
50206;BMP280;36098;48.390;10.856;2023-10-31T05:42:01;94786.53;;;22.02
50206;BMP280;36098;48.390;10.856;2023-10-31T05:44:27;94798.91;;;22.02
50206;BMP280;36098;48.390;10.856;2023-10-31T05:46:52;94784.97;;;22.01
50206;BMP280;36098;48.390;10.856;2023-10-31T05:49:17;94790.22;;;22.01
50206;BMP280;36098;48.390;10.856;2023-10-31T05:51:43;94808.34;;;22.03
50206;BMP280;36098;48.390;10.856;2023-10-31T05:54:08;94820.41;;;22.04
50206;BMP280;36098;48.390;10.856;2023-10-31T05:56:34;94822.56;;;22.02
50206;BMP280;36098;48.390;10.856;2023-10-31T05:58:59;94820.69;;;22.02
50206;BMP280;36098;48.390;10.856;2023-10-31T06:01:25;94822.72;;;22.05
50206;BMP280;36098;48.390;10.856;2023-10-31T06:03:50;94830.94;;;22.04
50206;BMP280;36098;48.390;10.856;2023-10-31T06:06:15;94842.19;;;22.04
50206;BMP280;36098;48.390;10.856;2023-10-31T06:08:41;94838.81;;;22.04
50206;BMP280;36098;48.390;10.856;2023-10-31T06:11:07;94842.19;;;22.04
50206;BMP280;36098;48.390;10.856;2023-10-31T06:13:33;94846.69;;;22.04
50206;BMP280;36098;48.390;10.856;2023-10-31T06:16:00;94847.47;;;22.04
50206;BMP280;36098;48.390;10.856;2023-10-31T06:18:26;94849.31;;;22.04
50206;BMP280;36098;48.390;10.856;2023-10-31T06:20:52;94859.53;;;22.05
50206;BMP280;36098;48.390;10.856;2023-10-31T06:23:17;94865.59;;;22.06
50206;BMP280;36098;48.390;10.856;2023-10-31T06:25:42;94875.31;;;22.05
50206;BMP280;36098;48.390;10.856;2023-10-31T06:28:08;94876.09;;;22.06
50206;BMP280;36098;48.390;10.856;2023-10-31T06:30:33;94866.16;;;22.03
50206;BMP280;36098;48.390;10.856;2023-10-31T06:32:58;94864.03;;;22.05
50206;BMP280;36098;48.390;10.856;2023-10-31T06:35:24;94879.78;;;22.05
50206;BMP280;36098;48.390;10.856;2023-10-31T06:37:52;94881.34;;;22.06
50206;BMP280;36098;48.390;10.856;2023-10-31T06:40:17;94872.66;;;22.05
50206;BMP280;36098;48.390;10.856;2023-10-31T06:42:42;94883.19;;;22.05
50206;BMP280;36098;48.390;10.856;2023-10-31T06:45:08;94883.97;;;22.06
50206;BMP280;36098;48.390;10.856;2023-10-31T06:47:34;94886.13;;;22.04
50206;BMP280;36098;48.390;10.856;2023-10-31T06:49:59;94894.50;;;22.06
50206;BMP280;36098;48.390;10.856;2023-10-31T06:52:24;94892.63;;;22.06
50206;BMP280;36098;48.390;10.856;2023-10-31T06:54:50;94900.25;;;22.08
50206;BMP280;36098;48.390;10.856;2023-10-31T06:57:15;94904.16;;;22.10
50206;BMP280;36098;48.390;10.856;2023-10-31T06:59:41;94910.16;;;22.11
50206;BMP280;36098;48.390;10.856;2023-10-31T07:02:07;94910.16;;;22.11
50206;BMP280;36098;48.390;10.856;2023-10-31T07:04:32;94918.06;;;22.11
50206;BMP280;36098;48.390;10.856;2023-10-31T07:06:57;94918.53;;;22.13
50206;BMP280;36098;48.390;10.856;2023-10-31T07:09:23;94917.00;;;22.12
50206;BMP280;36098;48.390;10.856;2023-10-31T07:11:49;94918.06;;;22.11
50206;BMP280;36098;48.390;10.856;2023-10-31T07:14:14;94920.69;;;22.11
50206;BMP280;36098;48.390;10.856;2023-10-31T07:16:39;94923.31;;;22.11
50206;BMP280;36098;48.390;10.856;2023-10-31T07:19:05;94927.00;;;22.10
50206;BMP280;36098;48.390;10.856;2023-10-31T07:21:30;94927.00;;;22.10
50206;BMP280;36098;48.390;10.856;2023-10-31T07:23:55;94937.53;;;22.10
50206;BMP280;36098;48.390;10.856;2023-10-31T07:26:21;94940.94;;;22.10
50206;BMP280;36098;48.390;10.856;2023-10-31T07:28:46;94946.97;;;22.11
50206;BMP280;36098;48.390;10.856;2023-10-31T07:31:13;94952.22;;;22.11
50206;BMP280;36098;48.390;10.856;2023-10-31T07:33:39;94945.41;;;22.10
50206;BMP280;36098;48.390;10.856;2023-10-31T07:36:04;94937.25;;;22.11
50206;BMP280;36098;48.390;10.856;2023-10-31T07:38:30;94941.72;;;22.11
50206;BMP280;36098;48.390;10.856;2023-10-31T07:40:55;94954.84;;;22.11
50206;BMP280;36098;48.390;10.856;2023-10-31T07:43:20;94953.78;;;22.12
50206;BMP280;36098;48.390;10.856;2023-10-31T07:45:46;94938.00;;;22.12
50206;BMP280;36098;48.390;10.856;2023-10-31T07:48:12;94944.84;;;22.13
50206;BMP280;36098;48.390;10.856;2023-10-31T07:50:37;94945.91;;;22.12
50206;BMP280;36098;48.390;10.856;2023-10-31T07:53:02;94945.41;;;22.10
50206;BMP280;36098;48.390;10.856;2023-10-31T07:55:28;94945.91;;;22.12
50206;BMP280;36098;48.390;10.856;2023-10-31T07:57:53;94943.59;;;22.10
50206;BMP280;36098;48.390;10.856;2023-10-31T08:00:18;94939.41;;;22.09
50206;BMP280;36098;48.390;10.856;2023-10-31T08:02:44;94940.66;;;22.12
50206;BMP280;36098;48.390;10.856;2023-10-31T08:05:10;94936.94;;;22.13
50206;BMP280;36098;48.390;10.856;2023-10-31T08:07:36;94930.34;;;22.15
50206;BMP280;36098;48.390;10.856;2023-10-31T08:10:01;94928.97;;;22.18
50206;BMP280;36098;48.390;10.856;2023-10-31T08:12:28;94925.56;;;22.17
50206;BMP280;36098;48.390;10.856;2023-10-31T08:14:54;94928.97;;;22.18
50206;BMP280;36098;48.390;10.856;2023-10-31T08:17:19;94922.16;;;22.17
50206;BMP280;36098;48.390;10.856;2023-10-31T08:19:44;94923.69;;;22.18
50206;BMP280;36098;48.390;10.856;2023-10-31T08:22:09;94923.69;;;22.18
50206;BMP280;36098;48.390;10.856;2023-10-31T08:24:35;94922.63;;;22.19
50206;BMP280;36098;48.390;10.856;2023-10-31T08:27:02;94919.53;;;22.17
50206;BMP280;36098;48.390;10.856;2023-10-31T08:29:27;94916.88;;;22.17
50206;BMP280;36098;48.390;10.856;2023-10-31T08:31:52;94913.19;;;22.18
50206;BMP280;36098;48.390;10.856;2023-10-31T08:34:18;94913.97;;;22.18
50206;BMP280;36098;48.390;10.856;2023-10-31T08:36:43;94915.06;;;22.17
50206;BMP280;36098;48.390;10.856;2023-10-31T08:39:08;94913.19;;;22.18
50206;BMP280;36098;48.390;10.856;2023-10-31T08:41:33;94920.00;;;22.19
50206;BMP280;36098;48.390;10.856;2023-10-31T08:43:59;94934.22;;;22.18
50206;BMP280;36098;48.390;10.856;2023-10-31T08:46:28;94933.16;;;22.19
50206;BMP280;36098;48.390;10.856;2023-10-31T08:48:54;94937.84;;;22.22
50206;BMP280;36098;48.390;10.856;2023-10-31T08:51:19;94939.22;;;22.19
50206;BMP280;36098;48.390;10.856;2023-10-31T08:53:44;94955.78;;;22.20
50206;BMP280;36098;48.390;10.856;2023-10-31T08:56:10;94954.19;;;22.19
50206;BMP280;36098;48.390;10.856;2023-10-31T08:58:35;94961.03;;;22.20
50206;BMP280;36098;48.390;10.856;2023-10-31T09:01:00;94965.50;;;22.19
50206;BMP280;36098;48.390;10.856;2023-10-31T09:03:25;94986.75;;;22.23
50206;BMP280;36098;48.390;10.856;2023-10-31T09:05:51;94988.31;;;22.24
50206;BMP280;36098;48.390;10.856;2023-10-31T09:08:16;94998.03;;;22.23
50206;BMP280;36098;48.390;10.856;2023-10-31T09:10:41;94990.13;;;22.23
50206;BMP280;36098;48.390;10.856;2023-10-31T09:13:08;94989.88;;;22.25
50206;BMP280;36098;48.390;10.856;2023-10-31T09:15:33;94998.81;;;22.24
50206;BMP280;36098;48.390;10.856;2023-10-31T09:17:58;95001.94;;;22.26
50206;BMP280;36098;48.390;10.856;2023-10-31T09:20:24;95010.31;;;22.28
50206;BMP280;36098;48.390;10.856;2023-10-31T09:22:49;95024.22;;;22.28
50206;BMP280;36098;48.390;10.856;2023-10-31T09:25:14;95032.13;;;22.28
50206;BMP280;36098;48.390;10.856;2023-10-31T09:27:40;95036.63;;;22.28
50206;BMP280;36098;48.390;10.856;2023-10-31T09:30:06;95039.72;;;22.30
50206;BMP280;36098;48.390;10.856;2023-10-31T09:32:32;95034.47;;;22.30
50206;BMP280;36098;48.390;10.856;2023-10-31T09:34:57;95039.72;;;22.30
50206;BMP280;36098;48.390;10.856;2023-10-31T09:37:23;95051.31;;;22.29
50206;BMP280;36098;48.390;10.856;2023-10-31T09:39:48;95053.16;;;22.28
50206;BMP280;36098;48.390;10.856;2023-10-31T09:42:13;95064.47;;;22.29
50206;BMP280;36098;48.390;10.856;2023-10-31T09:44:39;95068.94;;;22.28
50206;BMP280;36098;48.390;10.856;2023-10-31T09:47:05;95074.19;;;22.28
50206;BMP280;36098;48.390;10.856;2023-10-31T09:49:31;95078.69;;;22.28
50206;BMP280;36098;48.390;10.856;2023-10-31T09:51:56;95071.88;;;22.27
50206;BMP280;36098;48.390;10.856;2023-10-31T09:54:23;95072.94;;;22.26
50206;BMP280;36098;48.390;10.856;2023-10-31T09:56:50;95075.56;;;22.26
50206;BMP280;36098;48.390;10.856;2023-10-31T09:59:15;95085.50;;;22.29
50206;BMP280;36098;48.390;10.856;2023-10-31T10:01:41;95082.88;;;22.29
50206;BMP280;36098;48.390;10.856;2023-10-31T10:04:07;95083.38;;;22.31
50206;BMP280;36098;48.390;10.856;2023-10-31T10:06:32;95081.81;;;22.30
50206;BMP280;36098;48.390;10.856;2023-10-31T10:08:58;95076.28;;;22.31
50206;BMP280;36098;48.390;10.856;2023-10-31T10:11:24;95078.91;;;22.31
50206;BMP280;36098;48.390;10.856;2023-10-31T10:13:51;95075.97;;;22.33
50206;BMP280;36098;48.390;10.856;2023-10-31T10:16:29;95080.97;;;22.34
50206;BMP280;36098;48.390;10.856;2023-10-31T10:18:55;95088.84;;;22.34
50206;BMP280;36098;48.390;10.856;2023-10-31T10:21:20;95098.28;;;22.35
50206;BMP280;36098;48.390;10.856;2023-10-31T10:23:46;95088.06;;;22.34
50206;BMP280;36098;48.390;10.856;2023-10-31T10:26:13;95092.53;;;22.33
50206;BMP280;36098;48.390;10.856;2023-10-31T10:28:38;95094.38;;;22.33
50206;BMP280;36098;48.390;10.856;2023-10-31T10:31:03;95084.16;;;22.31
50206;BMP280;36098;48.390;10.856;2023-10-31T10:33:29;95087.88;;;22.30
50206;BMP280;36098;48.390;10.856;2023-10-31T10:35:54;95081.81;;;22.30
50206;BMP280;36098;48.390;10.856;2023-10-31T10:38:20;95081.81;;;22.30
50206;BMP280;36098;48.390;10.856;2023-10-31T10:40:47;95088.63;;;22.31
50206;BMP280;36098;48.390;10.856;2023-10-31T10:43:22;95090.19;;;22.32
50206;BMP280;36098;48.390;10.856;2023-10-31T10:45:53;95088.06;;;22.34
50206;BMP280;36098;48.390;10.856;2023-10-31T10:48:21;95099.38;;;22.34
50206;BMP280;36098;48.390;10.856;2023-10-31T10:50:52;95095.66;;;22.35
50206;BMP280;36098;48.390;10.856;2023-10-31T10:53:23;95096.44;;;22.36
50206;BMP280;36098;48.390;10.856;2023-10-31T10:55:55;95093.53;;;22.37
50206;BMP280;36098;48.390;10.856;2023-10-31T10:58:27;95086.44;;;22.38
50206;BMP280;36098;48.390;10.856;2023-10-31T11:00:57;95094.06;;;22.39
50206;BMP280;36098;48.390;10.856;2023-10-31T11:03:24;95088.03;;;22.39
50206;BMP280;36098;48.390;10.856;2023-10-31T11:05:49;95089.84;;;22.38
50206;BMP280;36098;48.390;10.856;2023-10-31T11:08:16;95084.59;;;22.38
50206;BMP280;36098;48.390;10.856;2023-10-31T11:10:42;95083.81;;;22.38
50206;BMP280;36098;48.390;10.856;2023-10-31T11:13:07;95086.69;;;22.36
50206;BMP280;36098;48.390;10.856;2023-10-31T11:15:33;95085.16;;;22.35
50206;BMP280;36098;48.390;10.856;2023-10-31T11:17:59;95086.69;;;22.36
50206;BMP280;36098;48.390;10.856;2023-10-31T11:20:25;95089.84;;;22.38
50206;BMP280;36098;48.390;10.856;2023-10-31T11:22:55;95085.91;;;22.36
50206;BMP280;36098;48.390;10.856;2023-10-31T11:25:23;95093.03;;;22.35
50206;BMP280;36098;48.390;10.856;2023-10-31T11:27:53;95088.84;;;22.34
50206;BMP280;36098;48.390;10.856;2023-10-31T11:32:48;95090.41;;;22.35
50206;BMP280;36098;48.390;10.856;2023-10-31T11:35:16;95091.16;;;22.36
50206;BMP280;36098;48.390;10.856;2023-10-31T11:37:41;95099.59;;;22.38
50206;BMP280;36098;48.390;10.856;2023-10-31T11:42:38;95105.13;;;22.36
50206;BMP280;36098;48.390;10.856;2023-10-31T11:45:04;95101.69;;;22.36
50206;BMP280;36098;48.390;10.856;2023-10-31T11:47:48;95099.84;;;22.36
50206;BMP280;36098;48.390;10.856;2023-10-31T11:50:15;95098.00;;;22.37
50206;BMP280;36098;48.390;10.856;2023-10-31T11:52:40;95111.13;;;22.37
50206;BMP280;36098;48.390;10.856;2023-10-31T11:55:12;95104.84;;;22.38
50206;BMP280;36098;48.390;10.856;2023-10-31T11:57:40;95103.81;;;22.39
50206;BMP280;36098;48.390;10.856;2023-10-31T12:00:06;95108.50;;;22.37
50206;BMP280;36098;48.390;10.856;2023-10-31T12:02:35;95105.13;;;22.36
50206;BMP280;36098;48.390;10.856;2023-10-31T12:05:11;95093.53;;;22.37
50206;BMP280;36098;48.390;10.856;2023-10-31T12:07:44;95098.78;;;22.37
50206;BMP280;36098;48.390;10.856;2023-10-31T12:10:09;95098.25;;;22.40
50206;BMP280;36098;48.390;10.856;2023-10-31T12:12:35;95105.38;;;22.40
50206;BMP280;36098;48.390;10.856;2023-10-31T12:15:09;95096.69;;;22.39
50206;BMP280;36098;48.390;10.856;2023-10-31T12:17:35;95102.16;;;22.43
50206;BMP280;36098;48.390;10.856;2023-10-31T12:20:08;95098.47;;;22.44
50206;BMP280;36098;48.390;10.856;2023-10-31T12:22:34;95097.66;;;22.43
50206;BMP280;36098;48.390;10.856;2023-10-31T12:25:04;95105.84;;;22.42
50206;BMP280;36098;48.390;10.856;2023-10-31T12:27:46;95091.91;;;22.41
50206;BMP280;36098;48.390;10.856;2023-10-31T12:30:13;95085.88;;;22.41
50206;BMP280;36098;48.390;10.856;2023-10-31T12:32:40;95088.50;;;22.41
50206;BMP280;36098;48.390;10.856;2023-10-31T12:35:05;95093.78;;;22.41
50206;BMP280;36098;48.390;10.856;2023-10-31T12:37:31;95096.91;;;22.43
50206;BMP280;36098;48.390;10.856;2023-10-31T12:39:57;95095.34;;;22.42
50206;BMP280;36098;48.390;10.856;2023-10-31T12:42:23;95099.03;;;22.41
50206;BMP280;36098;48.390;10.856;2023-10-31T12:44:55;95094.84;;;22.40
50206;BMP280;36098;48.390;10.856;2023-10-31T12:47:23;95100.59;;;22.42
50206;BMP280;36098;48.390;10.856;2023-10-31T12:50:11;95089.28;;;22.41
50206;BMP280;36098;48.390;10.856;2023-10-31T12:52:48;95095.34;;;22.42
50206;BMP280;36098;48.390;10.856;2023-10-31T12:55:14;95091.63;;;22.43
50206;BMP280;36098;48.390;10.856;2023-10-31T12:57:40;95095.53;;;22.45
50206;BMP280;36098;48.390;10.856;2023-10-31T13:00:06;95095.25;;;22.47
50206;BMP280;36098;48.390;10.856;2023-10-31T13:02:38;95102.34;;;22.46
50206;BMP280;36098;48.390;10.856;2023-10-31T13:05:11;95103.41;;;22.45
50206;BMP280;36098;48.390;10.856;2023-10-31T13:07:37;95110.53;;;22.45
50206;BMP280;36098;48.390;10.856;2023-10-31T13:10:04;95106.84;;;22.46
50206;BMP280;36098;48.390;10.856;2023-10-31T13:12:30;95107.34;;;22.48
50206;BMP280;36098;48.390;10.856;2023-10-31T13:14:55;95111.78;;;22.47
50206;BMP280;36098;48.390;10.856;2023-10-31T13:17:21;95111.59;;;22.44
50206;BMP280;36098;48.390;10.856;2023-10-31T13:19:46;95114.25;;;22.44
50206;BMP280;36098;48.390;10.856;2023-10-31T13:22:11;95118.91;;;22.47
50206;BMP280;36098;48.390;10.856;2023-10-31T13:24:37;95122.63;;;22.46
50206;BMP280;36098;48.390;10.856;2023-10-31T13:27:02;95121.56;;;22.47
50206;BMP280;36098;48.390;10.856;2023-10-31T13:29:28;95123.09;;;22.48
50206;BMP280;36098;48.390;10.856;2023-10-31T13:31:54;95114.63;;;22.51
50206;BMP280;36098;48.390;10.856;2023-10-31T13:34:19;95123.03;;;22.53
50206;BMP280;36098;48.390;10.856;2023-10-31T13:36:44;95120.38;;;22.53
50206;BMP280;36098;48.390;10.856;2023-10-31T13:39:10;95128.28;;;22.53
50206;BMP280;36098;48.390;10.856;2023-10-31T13:41:35;95136.19;;;22.53
50206;BMP280;36098;48.390;10.856;2023-10-31T13:44:01;95135.41;;;22.52
50206;BMP280;36098;48.390;10.856;2023-10-31T13:46:28;95132.78;;;22.52
50206;BMP280;36098;48.390;10.856;2023-10-31T13:48:53;95139.09;;;22.51
50206;BMP280;36098;48.390;10.856;2023-10-31T13:51:19;95146.22;;;22.51
50206;BMP280;36098;48.390;10.856;2023-10-31T13:53:44;95149.81;;;22.55
50206;BMP280;36098;48.390;10.856;2023-10-31T13:56:10;95154.00;;;22.56